Terminal Aerodrome Forecast
Issued by NWS Billings, MT

Home | Current Version | Previous Version | Text Only | Print | Product List | Glossary On
Versions: 1 2 3 4 5 6 7 8 9 10 11 12 13 14 15 16 17 18 19 20 21 22 23 24 25 26 27 28 29
000
FTUS45 KBYZ 211140
TAFMLS
TAF
KMLS 211140Z 2112/2212 VRB05KT P6SM SKC
     FM211500 16008KT P6SM SCT250
     FM212100 24009KT P6SM BKN150
     FM220200 29018G27KT P6SM BKN090
     FM220800 27016KT P6SM SCT100=

USA.gov is the U.S. government's official web portal to all federal, state and local government web resources and services.